createdAt,value
2019-03-15T00:00:24.685Z,1003.51
2019-03-15T00:01:24.666Z,1003.50
2019-03-15T00:02:24.662Z,1003.49
2019-03-15T00:03:25.477Z,1003.52
2019-03-15T00:04:24.602Z,1003.52
2019-03-15T00:05:25.536Z,1003.54
2019-03-15T00:06:25.332Z,1003.54
2019-03-15T00:07:24.539Z,1003.58
2019-03-15T00:08:24.519Z,1003.53
2019-03-15T00:09:25.006Z,1003.52
2019-03-15T00:10:24.476Z,1003.54
2019-03-15T00:11:24.461Z,1003.59
2019-03-15T00:12:24.977Z,1003.65
2019-03-15T00:13:24.415Z,1003.65
2019-03-15T00:14:24.398Z,1003.69
2019-03-15T00:15:25.467Z,1003.69
2019-03-15T00:16:24.364Z,1003.69
2019-03-15T00:17:24.997Z,1003.68
2019-03-15T00:18:24.338Z,1003.69
2019-03-15T00:19:24.296Z,1003.67
2019-03-15T00:20:24.281Z,1003.69
2019-03-15T00:21:24.277Z,1003.64
2019-03-15T00:22:24.259Z,1003.68
2019-03-15T00:23:24.231Z,1003.69
2019-03-15T00:24:24.186Z,1003.66
2019-03-15T00:25:24.167Z,1003.65
2019-03-15T00:26:24.225Z,1003.63
2019-03-15T00:27:24.120Z,1003.64
2019-03-15T00:28:24.115Z,1003.60
2019-03-15T00:29:24.169Z,1003.61
2019-03-15T00:30:24.057Z,1003.62
2019-03-15T00:31:24.038Z,1003.61
2019-03-15T00:32:24.030Z,1003.69
2019-03-15T00:33:24.507Z,1003.77
2019-03-15T00:34:23.973Z,1003.72
2019-03-15T00:35:23.950Z,1003.75
2019-03-15T00:36:23.931Z,1003.75
2019-03-15T00:37:23.911Z,1003.80
2019-03-15T00:38:23.998Z,1003.83
2019-03-15T00:39:23.882Z,1003.88
2019-03-15T00:40:23.855Z,1003.84
2019-03-15T00:41:23.841Z,1003.86
2019-03-15T00:42:23.808Z,1003.85
2019-03-15T00:43:23.781Z,1003.80
2019-03-15T00:44:23.782Z,1003.79
2019-03-15T00:45:23.738Z,1003.86
2019-03-15T00:46:23.900Z,1003.85
2019-03-15T00:47:23.698Z,1003.88
2019-03-15T00:48:23.684Z,1003.85
2019-03-15T00:49:23.658Z,1003.90
2019-03-15T00:50:23.632Z,1003.86
2019-03-15T00:51:23.634Z,1003.87
2019-03-15T00:52:23.596Z,1003.87
2019-03-15T00:53:23.576Z,1003.90
2019-03-15T00:54:23.554Z,1003.88
2019-03-15T00:55:23.529Z,1003.90
2019-03-15T00:56:23.515Z,1003.89
2019-03-15T00:57:23.510Z,1003.90
2019-03-15T00:58:23.469Z,1003.90
2019-03-15T00:59:24.032Z,1003.93
2019-03-15T01:00:23.424Z,1003.86
2019-03-15T01:01:23.409Z,1003.86
2019-03-15T01:02:23.386Z,1003.86
2019-03-15T01:03:23.383Z,1003.78
2019-03-15T01:04:24.004Z,1003.78
2019-03-15T01:05:23.352Z,1003.80
2019-03-15T01:06:23.311Z,1003.82
2019-03-15T01:07:24.022Z,1003.85
2019-03-15T01:08:23.991Z,1003.92
2019-03-15T01:09:23.231Z,1003.88
2019-03-15T01:10:23.220Z,1003.84
2019-03-15T01:11:23.196Z,1003.82
2019-03-15T01:12:23.178Z,1003.81
2019-03-15T01:13:23.148Z,1003.79
2019-03-15T01:14:24.979Z,1003.82
2019-03-15T01:15:23.110Z,1003.79
2019-03-15T01:16:23.089Z,1003.78
2019-03-15T01:17:23.072Z,1003.74
2019-03-15T01:18:23.050Z,1003.71
2019-03-15T01:19:23.028Z,1003.68
2019-03-15T01:20:23.023Z,1003.73
2019-03-15T01:21:22.987Z,1003.79
2019-03-15T01:22:22.976Z,1003.74
2019-03-15T01:23:22.961Z,1003.75
2019-03-15T01:24:23.522Z,1003.73
2019-03-15T01:25:22.903Z,1003.75
2019-03-15T01:26:22.888Z,1003.70
2019-03-15T01:27:22.885Z,1003.69
2019-03-15T01:28:23.053Z,1003.70
2019-03-15T01:29:22.822Z,1003.65
2019-03-15T01:30:22.794Z,1003.77
2019-03-15T01:31:22.779Z,1003.76
2019-03-15T01:32:22.773Z,1003.73
2019-03-15T01:33:22.735Z,1003.78
2019-03-15T01:34:22.718Z,1003.69
2019-03-15T01:35:22.692Z,1003.78
2019-03-15T01:36:22.677Z,1003.73
2019-03-15T01:37:24.488Z,1003.77
2019-03-15T01:38:22.650Z,1003.75
2019-03-15T01:39:22.624Z,1003.72
2019-03-15T01:40:22.597Z,1003.73
2019-03-15T01:41:22.569Z,1003.72
2019-03-15T01:42:22.546Z,1003.69
2019-03-15T01:43:22.530Z,1003.68
2019-03-15T01:44:22.498Z,1003.62
2019-03-15T01:45:22.501Z,1003.64
2019-03-15T01:46:22.479Z,1003.60
2019-03-15T01:47:23.134Z,1003.67
2019-03-15T01:48:22.421Z,1003.60
2019-03-15T01:49:22.416Z,1003.54
2019-03-15T01:50:22.378Z,1003.53
2019-03-15T01:51:23.000Z,1003.51
2019-03-15T01:52:22.337Z,1003.56
2019-03-15T01:53:23.442Z,1003.52
2019-03-15T01:54:22.293Z,1003.45
2019-03-15T01:55:22.275Z,1003.40
2019-03-15T01:56:22.254Z,1003.43
2019-03-15T01:57:22.330Z,1003.37
2019-03-15T01:58:22.212Z,1003.36
2019-03-15T01:59:23.004Z,1003.44
2019-03-15T02:00:22.167Z,1003.46
2019-03-15T02:01:22.163Z,1003.45
2019-03-15T02:02:22.390Z,1003.44
2019-03-15T02:03:22.112Z,1003.39
2019-03-15T02:04:22.084Z,1003.37
2019-03-15T02:05:22.060Z,1003.35
2019-03-15T02:06:23.986Z,1003.33
2019-03-15T02:07:22.016Z,1003.34
2019-03-15T02:08:22.013Z,1003.32
2019-03-15T02:09:21.975Z,1003.31
2019-03-15T02:10:22.583Z,1003.32
2019-03-15T02:11:21.935Z,1003.33
2019-03-15T02:12:21.990Z,1003.27
2019-03-15T02:13:22.523Z,1003.33
2019-03-15T02:14:21.871Z,1003.33
2019-03-15T02:15:21.855Z,1003.28
2019-03-15T02:16:21.845Z,1003.32
2019-03-15T02:17:21.811Z,1003.30
2019-03-15T02:18:21.787Z,1003.33
2019-03-15T02:19:21.764Z,1003.29
2019-03-15T02:20:22.521Z,1003.32
2019-03-15T02:21:21.726Z,1003.25
2019-03-15T02:22:21.699Z,1003.30
2019-03-15T02:23:23.224Z,1003.20
2019-03-15T02:24:21.675Z,1003.19
2019-03-15T02:25:21.639Z,1003.17
2019-03-15T02:26:21.613Z,1003.19
2019-03-15T02:27:21.593Z,1003.14
2019-03-15T02:28:21.574Z,1003.18
2019-03-15T02:29:21.576Z,1003.17
2019-03-15T02:30:21.567Z,1003.11
2019-03-15T02:31:21.509Z,1003.17
2019-03-15T02:32:21.519Z,1003.12
2019-03-15T02:33:21.483Z,1003.16
2019-03-15T02:34:21.459Z,1003.13
2019-03-15T02:35:21.425Z,1003.06
2019-03-15T02:36:21.424Z,1003.08
2019-03-15T02:37:21.427Z,1003.02
2019-03-15T02:38:21.383Z,1003.06
2019-03-15T02:39:21.343Z,1003.05
2019-03-15T02:40:21.378Z,1003.02
2019-03-15T02:41:21.299Z,1003.04
2019-03-15T02:42:21.287Z,1003.01
2019-03-15T02:43:21.259Z,1002.98
2019-03-15T02:44:21.989Z,1002.98
2019-03-15T02:45:21.214Z,1002.99
2019-03-15T02:46:21.207Z,1002.99
2019-03-15T02:47:21.176Z,1003.00
2019-03-15T02:48:21.171Z,1002.97
2019-03-15T02:49:21.138Z,1002.96
2019-03-15T02:50:21.110Z,1002.97
2019-03-15T02:51:23.321Z,1002.97
2019-03-15T02:52:21.065Z,1002.91
2019-03-15T02:53:22.991Z,1002.86
2019-03-15T02:54:21.043Z,1002.91
2019-03-15T02:55:21.252Z,1002.94
2019-03-15T02:56:20.982Z,1002.89
2019-03-15T02:57:20.959Z,1002.90
2019-03-15T02:58:21.057Z,1002.92
2019-03-15T02:59:21.131Z,1002.99
2019-03-15T03:00:20.915Z,1003.00
2019-03-15T03:01:20.879Z,1002.99
2019-03-15T03:02:20.855Z,1003.02
2019-03-15T03:03:21.001Z,1003.07
2019-03-15T03:04:20.828Z,1003.02
2019-03-15T03:05:20.793Z,1003.02
2019-03-15T03:06:20.772Z,1002.99
2019-03-15T03:07:21.175Z,1002.97
2019-03-15T03:08:20.727Z,1002.93
2019-03-15T03:09:20.725Z,1002.94
2019-03-15T03:10:20.710Z,1002.94
2019-03-15T03:11:20.779Z,1002.98
2019-03-15T03:12:20.648Z,1002.93
2019-03-15T03:13:20.621Z,1002.95
2019-03-15T03:14:20.606Z,1002.95
2019-03-15T03:15:21.540Z,1002.96
2019-03-15T03:16:20.576Z,1003.01
2019-03-15T03:17:20.544Z,1003.00
2019-03-15T03:18:20.534Z,1003.03
2019-03-15T03:19:20.495Z,1002.99
2019-03-15T03:20:21.207Z,1002.98
2019-03-15T03:21:20.461Z,1002.96
2019-03-15T03:22:20.454Z,1002.96
2019-03-15T03:23:20.422Z,1002.94
2019-03-15T03:24:20.425Z,1002.96
2019-03-15T03:25:20.367Z,1002.90
2019-03-15T03:26:20.350Z,1002.87
2019-03-15T03:27:20.330Z,1002.84
2019-03-15T03:28:20.308Z,1002.80
2019-03-15T03:29:20.408Z,1002.80
2019-03-15T03:30:20.268Z,1002.81
2019-03-15T03:31:20.254Z,1002.75
2019-03-15T03:32:20.224Z,1002.78
2019-03-15T03:33:20.203Z,1002.73
2019-03-15T03:34:21.035Z,1002.72
2019-03-15T03:35:20.159Z,1002.66
2019-03-15T03:36:20.138Z,1002.66
2019-03-15T03:37:20.119Z,1002.66
2019-03-15T03:38:20.098Z,1002.65
2019-03-15T03:39:20.095Z,1002.66
2019-03-15T03:40:21.140Z,1002.66
2019-03-15T03:41:20.035Z,1002.65
2019-03-15T03:42:20.186Z,1002.61
2019-03-15T03:43:19.987Z,1002.70
2019-03-15T03:44:19.969Z,1002.67
2019-03-15T03:45:23.178Z,1002.67
2019-03-15T03:46:19.945Z,1002.66
2019-03-15T03:47:19.916Z,1002.68
2019-03-15T03:48:19.885Z,1002.66
2019-03-15T03:49:19.864Z,1002.63
2019-03-15T03:50:19.844Z,1002.61
2019-03-15T03:51:19.818Z,1002.61
2019-03-15T03:52:20.504Z,1002.59
2019-03-15T03:53:19.791Z,1002.60
2019-03-15T03:54:19.755Z,1002.58
2019-03-15T03:55:19.733Z,1002.57
2019-03-15T03:56:19.722Z,1002.57
2019-03-15T03:57:19.693Z,1002.53
2019-03-15T03:58:19.689Z,1002.53
2019-03-15T03:59:19.652Z,1002.50
2019-03-15T04:00:19.628Z,1002.51
2019-03-15T04:01:19.612Z,1002.53
2019-03-15T04:02:19.596Z,1002.52
2019-03-15T04:03:19.565Z,1002.53
2019-03-15T04:04:19.566Z,1002.54
2019-03-15T04:05:19.530Z,1002.44
2019-03-15T04:06:19.509Z,1002.43
2019-03-15T04:07:19.488Z,1002.46
2019-03-15T04:08:19.465Z,1002.39
2019-03-15T04:09:19.470Z,1002.37
2019-03-15T04:10:19.421Z,1002.33
2019-03-15T04:11:19.398Z,1002.45
2019-03-15T04:12:19.394Z,1002.52
2019-03-15T04:13:19.368Z,1002.56
2019-03-15T04:14:19.368Z,1002.60
2019-03-15T04:15:19.315Z,1002.58
2019-03-15T04:16:19.290Z,1002.55
2019-03-15T04:17:19.277Z,1002.49
2019-03-15T04:18:19.252Z,1002.52
2019-03-15T04:19:19.308Z,1002.51
2019-03-15T04:20:20.503Z,1002.55
2019-03-15T04:21:19.188Z,1002.51
2019-03-15T04:22:19.167Z,1002.53
2019-03-15T04:23:19.148Z,1002.54
2019-03-15T04:24:19.125Z,1002.53
2019-03-15T04:25:19.103Z,1002.48
2019-03-15T04:26:19.096Z,1002.44
2019-03-15T04:27:19.062Z,1002.40
2019-03-15T04:28:19.042Z,1002.42
2019-03-15T04:29:19.020Z,1002.48
2019-03-15T04:30:19.002Z,1002.44
2019-03-15T04:31:18.991Z,1002.46
2019-03-15T04:32:18.959Z,1002.54
2019-03-15T04:33:18.933Z,1002.50
2019-03-15T04:34:18.931Z,1002.40
2019-03-15T04:35:18.888Z,1002.43
2019-03-15T04:36:18.870Z,1002.44
2019-03-15T04:37:18.845Z,1002.46
2019-03-15T04:38:18.843Z,1002.47
2019-03-15T04:39:18.803Z,1002.46
2019-03-15T04:40:18.787Z,1002.47
2019-03-15T04:41:18.765Z,1002.46
2019-03-15T04:42:18.738Z,1002.47
2019-03-15T04:43:18.723Z,1002.47
2019-03-15T04:44:18.717Z,1002.48
2019-03-15T04:45:18.683Z,1002.45
2019-03-15T04:46:18.678Z,1002.40
2019-03-15T04:47:20.506Z,1002.41
2019-03-15T04:48:18.617Z,1002.40
2019-03-15T04:49:18.597Z,1002.37
2019-03-15T04:50:19.511Z,1002.40
2019-03-15T04:51:18.565Z,1002.31
2019-03-15T04:52:18.553Z,1002.31
2019-03-15T04:53:18.508Z,1002.34
2019-03-15T04:54:18.488Z,1002.38
2019-03-15T04:55:18.471Z,1002.35
2019-03-15T04:56:18.442Z,1002.32
2019-03-15T04:57:18.427Z,1002.31
2019-03-15T04:58:18.427Z,1002.28
2019-03-15T04:59:18.379Z,1002.30
2019-03-15T05:00:18.367Z,1002.30
2019-03-15T05:01:18.344Z,1002.33
2019-03-15T05:02:18.323Z,1002.29
2019-03-15T05:03:18.311Z,1002.27
2019-03-15T05:04:18.276Z,1002.28
2019-03-15T05:05:18.254Z,1002.27
2019-03-15T05:06:18.232Z,1002.26
2019-03-15T05:07:18.214Z,1002.24
2019-03-15T05:08:18.192Z,1002.25
2019-03-15T05:09:18.192Z,1002.28
2019-03-15T05:10:18.157Z,1002.25
2019-03-15T05:11:18.138Z,1002.26
2019-03-15T05:12:18.107Z,1002.25
2019-03-15T05:13:18.087Z,1002.24
2019-03-15T05:14:18.082Z,1002.23
2019-03-15T05:15:18.071Z,1002.19
2019-03-15T05:16:18.026Z,1002.22
2019-03-15T05:17:18.012Z,1002.22
2019-03-15T05:18:17.995Z,1002.15
2019-03-15T05:19:18.078Z,1002.22
2019-03-15T05:20:21.032Z,1002.21
2019-03-15T05:21:17.914Z,1002.22
2019-03-15T05:22:18.511Z,1002.16
2019-03-15T05:23:17.874Z,1002.15
2019-03-15T05:24:17.871Z,1002.16
2019-03-15T05:25:17.834Z,1002.12
2019-03-15T05:26:19.512Z,1002.10
2019-03-15T05:27:17.788Z,1002.05
2019-03-15T05:28:17.769Z,1002.06
2019-03-15T05:29:17.754Z,1002.02
2019-03-15T05:30:17.727Z,1001.99
2019-03-15T05:31:17.706Z,1001.95
2019-03-15T05:32:17.728Z,1001.93
2019-03-15T05:33:17.663Z,1001.93
2019-03-15T05:34:17.642Z,1001.89
2019-03-15T05:35:17.624Z,1001.86
2019-03-15T05:36:17.621Z,1001.87
2019-03-15T05:37:17.580Z,1001.86
2019-03-15T05:38:17.563Z,1001.88
2019-03-15T05:39:17.544Z,1001.84
2019-03-15T05:40:17.527Z,1001.88
2019-03-15T05:41:17.496Z,1001.83
2019-03-15T05:42:17.492Z,1001.83
2019-03-15T05:43:18.055Z,1001.85
2019-03-15T05:44:17.429Z,1001.87
2019-03-15T05:45:17.409Z,1001.90
2019-03-15T05:46:17.389Z,1001.90
2019-03-15T05:47:17.382Z,1001.88
2019-03-15T05:48:17.371Z,1001.90
2019-03-15T05:49:17.324Z,1001.90
2019-03-15T05:50:17.303Z,1001.91
2019-03-15T05:51:17.281Z,1001.93
2019-03-15T05:52:17.260Z,1001.82
2019-03-15T05:53:17.256Z,1001.77
2019-03-15T05:54:17.216Z,1001.78
2019-03-15T05:55:17.207Z,1001.76
2019-03-15T05:56:18.060Z,1001.77
2019-03-15T05:57:17.182Z,1001.70
2019-03-15T05:58:17.136Z,1001.75
2019-03-15T05:59:17.112Z,1001.71
2019-03-15T06:00:17.090Z,1001.73
2019-03-15T06:01:17.071Z,1001.69
2019-03-15T06:02:17.048Z,1001.69
2019-03-15T06:03:17.557Z,1001.69
2019-03-15T06:04:17.008Z,1001.68
2019-03-15T06:05:17.000Z,1001.67
2019-03-15T06:06:16.989Z,1001.61
2019-03-15T06:07:16.947Z,1001.59
2019-03-15T06:08:16.949Z,1001.62
2019-03-15T06:09:16.902Z,1001.63
2019-03-15T06:10:16.896Z,1001.64
2019-03-15T06:11:16.858Z,1001.59
2019-03-15T06:12:16.846Z,1001.56
2019-03-15T06:13:16.819Z,1001.60
2019-03-15T06:14:16.791Z,1001.55
2019-03-15T06:16:59.000Z,1001.49
2019-03-15T06:17:58.980Z,1001.50
2019-03-15T06:18:58.941Z,1001.49
2019-03-15T06:19:58.924Z,1001.48
2019-03-15T06:20:58.934Z,1001.45
2019-03-15T06:22:00.522Z,1001.45
2019-03-15T06:22:58.888Z,1001.42
2019-03-15T06:23:58.840Z,1001.42
2019-03-15T06:24:58.815Z,1001.35
2019-03-15T06:25:58.812Z,1001.40
2019-03-15T06:26:58.774Z,1001.38
2019-03-15T06:27:58.755Z,1001.35
2019-03-15T06:29:01.492Z,1001.38
2019-03-15T06:29:58.726Z,1001.40
2019-03-15T06:30:58.690Z,1001.41
2019-03-15T06:32:00.530Z,1001.38
2019-03-15T06:32:58.646Z,1001.39
2019-03-15T06:33:58.623Z,1001.40
2019-03-15T06:34:58.610Z,1001.35
2019-03-15T06:35:58.609Z,1001.36
2019-03-15T06:36:58.564Z,1001.32
2019-03-15T06:37:58.542Z,1001.32
2019-03-15T06:38:58.520Z,1001.32
2019-03-15T06:39:58.495Z,1001.33
2019-03-15T06:40:58.477Z,1001.36
2019-03-15T06:41:58.475Z,1001.36
2019-03-15T06:42:58.436Z,1001.36
2019-03-15T06:43:58.409Z,1001.33
2019-03-15T06:44:58.434Z,1001.37
2019-03-15T06:45:58.370Z,1001.36
2019-03-15T06:46:58.349Z,1001.31
2019-03-15T06:47:58.344Z,1001.34
2019-03-15T06:48:58.311Z,1001.28
2019-03-15T06:49:58.284Z,1001.29
2019-03-15T06:50:58.263Z,1001.28
2019-03-15T06:51:58.260Z,1001.24
2019-03-15T06:52:58.238Z,1001.25
2019-03-15T06:54:10.894Z,1001.25
2019-03-15T06:54:58.177Z,1001.30
2019-03-15T06:55:58.155Z,1001.29
2019-03-15T06:56:58.136Z,1001.22
2019-03-15T06:57:58.134Z,1001.22
2019-03-15T06:58:58.091Z,1001.18
2019-03-15T06:59:59.562Z,1001.18
2019-03-15T07:00:58.564Z,1001.16
2019-03-15T07:01:58.560Z,1001.09
2019-03-15T07:02:58.010Z,1001.12
2019-03-15T07:03:58.015Z,1001.00
2019-03-15T07:04:57.969Z,1000.96
2019-03-15T07:07:51.996Z,1000.94
2019-03-15T07:08:51.991Z,1000.91
2019-03-15T07:09:51.974Z,1000.97
2019-03-15T07:10:51.930Z,1000.95
2019-03-15T07:11:51.907Z,1000.92
2019-03-15T07:12:51.885Z,1000.94
2019-03-15T07:13:51.869Z,1000.96
2019-03-15T07:14:51.845Z,1000.92
2019-03-15T07:15:51.852Z,1000.91
2019-03-15T07:16:51.807Z,1000.96
2019-03-15T07:17:51.780Z,1000.90
2019-03-15T07:18:51.766Z,1000.91
2019-03-15T07:19:51.738Z,1000.91
2019-03-15T07:20:51.757Z,1000.90
2019-03-15T07:21:51.695Z,1000.85
2019-03-15T07:22:51.679Z,1000.82
2019-03-15T07:23:51.655Z,1000.78
2019-03-15T07:24:51.639Z,1000.80
2019-03-15T07:25:53.529Z,1000.78
2019-03-15T07:26:51.619Z,1000.78
2019-03-15T07:27:51.571Z,1000.76
2019-03-15T07:28:51.602Z,1000.74
2019-03-15T07:29:51.529Z,1000.69
2019-03-15T07:30:51.535Z,1000.66
2019-03-15T07:31:51.487Z,1000.65
2019-03-15T07:32:51.482Z,1000.64
2019-03-15T07:33:52.530Z,1000.60
2019-03-15T07:34:51.429Z,1000.58
2019-03-15T07:35:51.417Z,1000.60
2019-03-15T07:36:55.299Z,1000.59
2019-03-15T07:37:51.390Z,1000.59
2019-03-15T07:38:51.344Z,1000.54
2019-03-15T07:39:52.057Z,1000.55
2019-03-15T07:40:51.295Z,1000.49
2019-03-15T07:41:51.279Z,1000.45
2019-03-15T07:42:51.255Z,1000.42
2019-03-15T07:43:51.255Z,1000.38
2019-03-15T07:44:51.248Z,1000.33
2019-03-15T07:45:51.189Z,1000.36
2019-03-15T07:46:51.299Z,1000.35
2019-03-15T07:47:52.032Z,1000.36
2019-03-15T07:48:52.051Z,1000.36
2019-03-15T07:49:51.135Z,1000.39
2019-03-15T07:50:51.091Z,1000.36
2019-03-15T07:51:51.066Z,1000.37
2019-03-15T07:52:51.042Z,1000.35
2019-03-15T07:53:52.033Z,1000.35
2019-03-15T07:54:51.008Z,1000.38
2019-03-15T07:55:51.001Z,1000.36
2019-03-15T07:56:50.960Z,1000.31
2019-03-15T07:57:50.942Z,1000.32
2019-03-15T07:58:50.938Z,1000.28
2019-03-15T07:59:51.572Z,1000.20
2019-03-15T08:00:50.880Z,1000.29
2019-03-15T08:01:52.797Z,1000.29
2019-03-15T08:02:51.559Z,1000.25
2019-03-15T08:03:50.824Z,1000.25
2019-03-15T08:04:52.534Z,1000.22
2019-03-15T08:05:50.776Z,1000.24
2019-03-15T08:06:50.776Z,1000.24
2019-03-15T08:07:50.732Z,1000.26
2019-03-15T08:08:50.711Z,1000.21
2019-03-15T08:09:51.174Z,1000.24
2019-03-15T08:10:50.669Z,1000.21
2019-03-15T08:11:50.657Z,1000.21
2019-03-15T08:12:50.640Z,1000.19
2019-03-15T08:13:50.601Z,1000.12
2019-03-15T08:14:50.584Z,1000.17
2019-03-15T08:15:50.559Z,1000.14
2019-03-15T08:16:51.066Z,1000.19
2019-03-15T08:17:51.068Z,1000.29
2019-03-15T08:18:50.515Z,1000.25
2019-03-15T08:19:50.492Z,1000.21
2019-03-15T08:20:50.469Z,1000.23
2019-03-15T08:21:50.443Z,1000.25
2019-03-15T08:22:50.443Z,1000.25
2019-03-15T08:23:50.401Z,1000.30
2019-03-15T08:24:51.672Z,1000.24
2019-03-15T08:25:50.685Z,1000.18
2019-03-15T08:26:50.434Z,1000.20
2019-03-15T08:27:50.333Z,1000.16
2019-03-15T08:28:50.289Z,1000.19
2019-03-15T08:29:52.602Z,1000.20
2019-03-15T08:30:50.246Z,1000.20
2019-03-15T08:31:50.234Z,1000.23
2019-03-15T08:32:50.204Z,1000.19
2019-03-15T08:33:50.202Z,1000.11
2019-03-15T08:34:50.166Z,1000.14
2019-03-15T08:35:50.142Z,1000.19
2019-03-15T08:36:50.123Z,1000.16
2019-03-15T08:37:50.124Z,1000.13
2019-03-15T08:38:50.108Z,1000.13
2019-03-15T08:39:50.066Z,1000.19
2019-03-15T08:40:50.057Z,1000.14
2019-03-15T08:41:50.017Z,1000.17
2019-03-15T08:42:50.001Z,1000.15
2019-03-15T08:43:50.579Z,1000.16
2019-03-15T08:44:49.975Z,1000.24
2019-03-15T08:45:49.936Z,1000.26
2019-03-15T08:46:49.919Z,1000.26
2019-03-15T08:47:49.994Z,1000.21
2019-03-15T08:48:49.888Z,1000.25
2019-03-15T08:49:49.857Z,1000.18
2019-03-15T08:50:49.847Z,1000.21
2019-03-15T08:52:03.085Z,1000.22
2019-03-15T08:52:49.793Z,1000.23
2019-03-15T08:53:49.772Z,1000.23
2019-03-15T08:54:49.770Z,1000.25
2019-03-15T08:55:49.731Z,1000.26
2019-03-15T08:56:49.756Z,1000.31
2019-03-15T08:57:49.690Z,1000.27
2019-03-15T08:58:49.673Z,1000.21
2019-03-15T08:59:57.032Z,1000.18
2019-03-15T09:00:49.679Z,1000.14
2019-03-15T09:01:49.608Z,1000.20
2019-03-15T09:02:50.542Z,1000.21
2019-03-15T09:03:49.566Z,1000.22
2019-03-15T09:04:50.550Z,1000.25
2019-03-15T09:05:49.532Z,1000.33
2019-03-15T09:06:49.510Z,1000.28
2019-03-15T09:07:49.509Z,1000.30
2019-03-15T09:08:49.469Z,1000.27
2019-03-15T09:09:49.448Z,1000.28
2019-03-15T09:10:49.436Z,1000.25
2019-03-15T09:11:49.409Z,1000.25
2019-03-15T09:12:49.390Z,1000.24
2019-03-15T09:13:49.520Z,1000.22
2019-03-15T09:14:49.351Z,1000.17
2019-03-15T09:15:49.331Z,1000.26
2019-03-15T09:16:49.313Z,1000.24
2019-03-15T09:17:49.290Z,1000.26
2019-03-15T09:18:49.291Z,1000.27
2019-03-15T09:19:49.253Z,1000.24
2019-03-15T09:20:49.227Z,1000.32
2019-03-15T09:21:49.228Z,1000.25
2019-03-15T09:22:49.196Z,1000.25
2019-03-15T09:23:49.165Z,1000.28
2019-03-15T09:24:49.156Z,1000.27
2019-03-15T09:25:49.131Z,1000.28
2019-03-15T09:26:49.109Z,1000.30
2019-03-15T09:27:49.138Z,1000.30
2019-03-15T09:28:51.048Z,1000.28
2019-03-15T09:29:49.053Z,1000.31
2019-03-15T09:30:49.037Z,1000.32
2019-03-15T09:31:49.018Z,1000.31
2019-03-15T09:32:48.994Z,1000.31
2019-03-15T09:33:48.997Z,1000.26
2019-03-15T09:34:48.963Z,1000.29
2019-03-15T09:35:48.953Z,1000.29
2019-03-15T09:36:50.347Z,1000.32
2019-03-15T09:37:48.926Z,1000.40
2019-03-15T09:38:48.892Z,1000.28
2019-03-15T09:39:48.855Z,1000.27
2019-03-15T09:40:48.835Z,1000.28
2019-03-15T09:41:48.824Z,1000.21
2019-03-15T09:42:48.798Z,1000.31
2019-03-15T09:43:48.801Z,1000.28
2019-03-15T09:44:48.757Z,1000.25
2019-03-15T09:45:48.743Z,1000.20
2019-03-15T09:46:48.722Z,1000.20
2019-03-15T09:47:48.699Z,1000.22
2019-03-15T09:48:48.680Z,1000.24
2019-03-15T09:49:48.697Z,1000.31
2019-03-15T09:50:51.442Z,1000.31
2019-03-15T09:51:48.660Z,1000.27
2019-03-15T09:52:50.552Z,1000.37
2019-03-15T09:53:48.582Z,1000.35
2019-03-15T09:54:48.567Z,1000.36
2019-03-15T09:55:49.091Z,1000.34
2019-03-15T09:56:48.527Z,1000.36
2019-03-15T09:57:48.519Z,1000.28
2019-03-15T09:58:48.495Z,1000.38
2019-03-15T09:59:48.469Z,1000.38
2019-03-15T10:00:49.554Z,1000.48
2019-03-15T10:01:48.428Z,1000.27
2019-03-15T10:02:48.407Z,1000.39
2019-03-15T10:03:48.424Z,1000.33
2019-03-15T10:04:48.377Z,1000.35
2019-03-15T10:05:48.376Z,1000.35
2019-03-15T10:06:48.337Z,1000.35
2019-03-15T10:07:48.314Z,1000.33
2019-03-15T10:08:48.318Z,1000.41
2019-03-15T10:09:48.291Z,1000.42
2019-03-15T10:10:49.330Z,1000.37
2019-03-15T10:11:48.240Z,1000.39
2019-03-15T10:12:48.240Z,1000.43
2019-03-15T10:13:48.201Z,1000.40
2019-03-15T10:14:48.181Z,1000.36
2019-03-15T10:15:48.295Z,1000.45
2019-03-15T10:16:48.284Z,1000.49
2019-03-15T10:17:48.146Z,1000.40
2019-03-15T10:18:50.564Z,1000.44
2019-03-15T10:19:48.083Z,1000.36
2019-03-15T10:20:48.072Z,1000.44
2019-03-15T10:21:48.059Z,1000.45
2019-03-15T10:23:03.979Z,1000.48
2019-03-15T10:23:48.007Z,1000.47
2019-03-15T10:24:47.989Z,1000.54
2019-03-15T10:25:51.156Z,1000.57
2019-03-15T10:26:47.967Z,1000.54
2019-03-15T10:27:47.937Z,1000.47
2019-03-15T10:28:47.917Z,1000.52
2019-03-15T10:29:47.903Z,1000.54
2019-03-15T10:30:47.872Z,1000.51
2019-03-15T10:31:47.857Z,1000.57
2019-03-15T10:32:47.856Z,1000.52
2019-03-15T10:33:50.806Z,1000.53
2019-03-15T10:34:47.799Z,1000.56
2019-03-15T10:35:47.777Z,1000.66
2019-03-15T10:36:49.562Z,1000.64
2019-03-15T10:37:47.741Z,1000.54
2019-03-15T10:38:47.738Z,1000.64
2019-03-15T10:39:47.702Z,1000.72
2019-03-15T10:40:47.682Z,1000.64
2019-03-15T10:41:47.663Z,1000.62
2019-03-15T10:42:47.642Z,1000.64
2019-03-15T10:43:47.629Z,1000.72
2019-03-15T10:44:47.620Z,1000.77
2019-03-15T10:45:47.585Z,1000.72
2019-03-15T10:46:47.565Z,1000.69
2019-03-15T10:47:48.080Z,1000.71
2019-03-15T10:48:47.546Z,1000.76
2019-03-15T10:49:47.538Z,1000.77
2019-03-15T10:50:47.501Z,1000.85
2019-03-15T10:51:47.468Z,1000.77
2019-03-15T10:52:47.454Z,1000.73
2019-03-15T10:53:47.432Z,1000.78
2019-03-15T10:54:47.430Z,1000.82
2019-03-15T10:55:59.505Z,1000.85
2019-03-15T10:56:47.383Z,1000.87
2019-03-15T10:57:47.357Z,1000.88
2019-03-15T10:58:47.332Z,1000.84
2019-03-15T10:59:47.338Z,1000.79
2019-03-15T11:00:47.290Z,1000.83
2019-03-15T11:01:47.279Z,1000.78
2019-03-15T11:02:47.262Z,1000.78
2019-03-15T11:03:47.249Z,1000.85
2019-03-15T11:04:48.108Z,1000.78
2019-03-15T11:05:47.223Z,1000.84
2019-03-15T11:06:47.179Z,1000.86
2019-03-15T11:07:47.160Z,1000.88
2019-03-15T11:08:47.151Z,1000.86
2019-03-15T11:09:47.127Z,1000.91
2019-03-15T11:10:47.109Z,1000.96
2019-03-15T11:11:47.108Z,1000.90
2019-03-15T11:12:47.064Z,1000.91
2019-03-15T11:13:47.053Z,1000.93
2019-03-15T11:14:47.031Z,1000.78
2019-03-15T11:15:47.055Z,1001.07
2019-03-15T11:16:47.004Z,1001.04
2019-03-15T11:17:47.003Z,1001.12
2019-03-15T11:18:46.954Z,1001.10
2019-03-15T11:19:46.988Z,1001.15
2019-03-15T11:20:46.946Z,1001.24
2019-03-15T11:21:47.647Z,1001.20
2019-03-15T11:22:46.873Z,1001.18
2019-03-15T11:23:46.862Z,1001.20
2019-03-15T11:24:46.839Z,1001.27
2019-03-15T11:25:46.821Z,1001.19
2019-03-15T11:26:46.821Z,1001.32
2019-03-15T11:27:46.794Z,1001.23
2019-03-15T11:28:46.767Z,1001.27
2019-03-15T11:29:46.753Z,1001.26
2019-03-15T11:30:46.728Z,1001.26
2019-03-15T11:31:46.725Z,1001.20
2019-03-15T11:32:46.692Z,1001.30
2019-03-15T11:33:47.558Z,1000.95
2019-03-15T11:34:46.649Z,1001.29
2019-03-15T11:35:46.633Z,1001.27
2019-03-15T11:36:57.738Z,1001.29
2019-03-15T11:37:46.614Z,1001.37
2019-03-15T11:38:46.581Z,1001.31
2019-03-15T11:39:46.576Z,1001.27
2019-03-15T11:40:46.540Z,1001.13
2019-03-15T11:41:46.526Z,1001.15
2019-03-15T11:42:46.508Z,1001.18
2019-03-15T11:43:46.483Z,1001.20
2019-03-15T11:44:46.467Z,1001.17
2019-03-15T11:45:46.478Z,1001.30
2019-03-15T11:46:46.486Z,1001.20
2019-03-15T11:48:02.596Z,1001.18
2019-03-15T11:48:47.124Z,1001.24
2019-03-15T11:49:48.076Z,1001.19
2019-03-15T11:50:46.356Z,1001.28
2019-03-15T11:51:46.362Z,1001.19
2019-03-15T11:52:47.078Z,1001.08
2019-03-15T11:53:46.303Z,1001.21
2019-03-15T11:54:49.586Z,1001.30
2019-03-15T11:55:46.256Z,1001.29
2019-03-15T11:56:46.245Z,1001.36
2019-03-15T11:57:46.245Z,1001.35
2019-03-15T11:58:46.216Z,1001.39
2019-03-15T11:59:46.187Z,1001.33
2019-03-15T12:00:46.171Z,1001.44
2019-03-15T12:01:46.165Z,1001.30
2019-03-15T12:02:46.133Z,1001.34
2019-03-15T12:03:52.910Z,1001.44
2019-03-15T12:04:46.109Z,1001.35
2019-03-15T12:05:46.093Z,1001.41
2019-03-15T12:06:46.074Z,1001.45
2019-03-15T12:07:46.039Z,1001.41
2019-03-15T12:08:46.034Z,1001.56